Time;durP1;ratioP1;P1;durP2;ratioP2;P2;SDS_P1;SDS_P2;PMS_P1;PMS_P2;Temp;Humidity;BMP_temperature;BMP_pressure;BME280_temperature;BME280_humidity;BME280_pressure;Samples;Min_cycle;Max_cycle;Signal;HPM_P1;HPM_P2
2022/01/04 00:02:12;;;;;;;6.75;2.58;;;;;;;20.89;40.29;100019.91;5054935;28;20041;-66
2022/01/04 00:04:38;;;;;;;6.13;2.40;;;;;;;20.95;40.16;100022.53;5043276;28;20040;-66
2022/01/04 00:07:04;;;;;;;7.93;2.10;;;;;;;20.85;40.49;100011.56;5058266;28;20039;-66
2022/01/04 00:09:29;;;;;;;8.40;2.15;;;;;;;20.83;40.14;100008.31;5055579;28;20035;-67
2022/01/04 00:14:21;;;;;;;7.50;2.40;;;;;;;20.81;40.54;100011.16;5057008;28;20127;-66
2022/01/04 00:16:47;;;;;;;6.70;2.42;;;;;;;20.88;40.55;100003.22;5059326;28;20033;-66
2022/01/04 00:19:13;;;;;;;5.90;1.92;;;;;;;20.91;40.45;100005.44;5040287;28;20048;-66
2022/01/04 00:21:40;;;;;;;5.80;2.22;;;;;;;20.90;40.34;100005.66;5057684;28;20140;-66
2022/01/04 00:24:06;;;;;;;6.82;2.30;;;;;;;20.81;40.61;100003.19;5052800;28;20040;-66
2022/01/04 00:26:32;;;;;;;6.72;2.22;;;;;;;20.74;40.57;99981.25;5037536;28;20406;-66
2022/01/04 00:28:58;;;;;;;6.85;2.58;;;;;;;20.76;40.69;99986.34;5053177;28;20044;-66
2022/01/04 00:31:23;;;;;;;6.15;1.92;;;;;;;20.74;40.67;99991.00;5054078;28;20036;-66
2022/01/04 00:33:49;;;;;;;8.60;2.20;;;;;;;20.75;40.71;99977.56;5054724;28;20514;-66
2022/01/04 00:36:15;;;;;;;8.90;2.35;;;;;;;20.71;40.76;99975.56;5056312;28;20032;-66
2022/01/04 00:38:41;;;;;;;6.28;1.92;;;;;;;20.69;40.91;99972.31;5058172;28;20045;-66
2022/01/04 00:41:06;;;;;;;4.68;1.90;;;;;;;20.62;40.81;99958.25;5058755;28;20033;-66
2022/01/04 00:43:32;;;;;;;10.90;2.92;;;;;;;20.59;40.82;99956.03;5056280;28;20094;-66
2022/01/04 00:45:59;;;;;;;6.30;2.42;;;;;;;20.60;41.04;99957.66;5059070;28;20498;-66
2022/01/04 00:50:51;;;;;;;6.80;1.88;;;;;;;20.58;41.22;99964.97;5056233;28;20044;-66
2022/01/04 00:53:16;;;;;;;8.55;2.20;;;;;;;20.50;41.16;99950.16;5039682;28;20846;-66
2022/01/04 00:55:42;;;;;;;6.25;1.95;;;;;;;20.44;41.34;99946.47;5058173;28;20139;-66
2022/01/04 00:58:07;;;;;;;5.15;2.05;;;;;;;20.52;41.17;99940.19;5059465;28;20036;-66
2022/01/04 01:00:33;;;;;;;6.97;2.15;;;;;;;20.50;41.10;99940.38;5057049;28;20036;-66
2022/01/04 01:02:59;;;;;;;6.82;3.05;;;;;;;20.41;41.41;99925.75;5037233;28;20067;-66
2022/01/04 01:05:26;;;;;;;5.85;2.22;;;;;;;20.41;41.51;99936.31;5055491;28;20753;-66
2022/01/04 01:07:55;;;;;;;6.05;2.38;;;;;;;20.41;41.38;99930.22;5056600;28;20155;-66
2022/01/04 01:12:58;;;;;;;7.00;2.28;;;;;;;20.05;41.75;99883.03;5053619;28;20032;-66
2022/01/04 01:15:24;;;;;;;8.73;2.65;;;;;;;20.22;41.83;99918.59;5056453;28;20033;-66
2022/01/04 01:17:49;;;;;;;6.75;2.08;;;;;;;20.22;41.83;99914.13;5055350;28;20120;-66
2022/01/04 01:20:15;;;;;;;2.90;1.85;;;;;;;20.22;41.88;99910.66;5038447;28;20125;-65
2022/01/04 01:22:41;;;;;;;9.05;2.22;;;;;;;20.17;41.99;99913.13;5052082;28;20036;-66
2022/01/04 01:25:13;;;;;;;6.35;2.28;;;;;;;20.22;41.86;99908.84;5056098;28;20044;-66
2022/01/04 01:27:39;;;;;;;9.95;2.70;;;;;;;20.22;41.85;99906.19;5057200;28;20094;-66
2022/01/04 01:30:06;;;;;;;5.75;2.10;;;;;;;20.08;42.03;99904.56;5055240;28;20028;-66
2022/01/04 01:32:31;;;;;;;3.80;1.95;;;;;;;20.10;42.11;99907.81;5059033;28;20040;-66
2022/01/04 01:34:57;;;;;;;5.03;2.30;;;;;;;20.06;42.23;99889.94;5057432;28;20103;-66
2022/01/04 01:37:22;;;;;;;5.70;2.00;;;;;;;20.03;42.32;99887.69;5053548;28;20047;-65
2022/01/04 01:39:48;;;;;;;10.18;2.60;;;;;;;20.09;42.07;99887.69;5057282;28;20116;-67
2022/01/04 01:42:14;;;;;;;6.55;2.33;;;;;;;20.10;42.10;99885.84;5056154;28;20040;-65
2022/01/04 01:44:39;;;;;;;9.82;2.40;;;;;;;19.94;42.49;99868.59;5054564;28;20079;-66
2022/01/04 01:47:05;;;;;;;6.53;1.85;;;;;;;19.79;42.40;99858.22;5054644;28;20067;-66
2022/01/04 01:49:31;;;;;;;4.57;2.00;;;;;;;19.93;42.51;99880.19;5052228;28;20029;-66
2022/01/04 01:51:57;;;;;;;4.68;2.33;;;;;;;19.85;42.57;99864.53;5059427;28;20117;-66
2022/01/04 01:54:23;;;;;;;5.90;2.10;;;;;;;19.96;42.50;99877.13;5058583;28;20036;-65
2022/01/04 01:56:49;;;;;;;3.05;1.80;;;;;;;19.96;42.46;99868.41;5052773;28;20040;-66
2022/01/04 01:59:15;;;;;;;8.32;2.72;;;;;;;19.55;42.53;99816.53;5055106;28;20083;-66
2022/01/04 02:01:41;;;;;;;6.82;1.88;;;;;;;19.83;42.71;99867.38;5060148;28;20041;-66
2022/01/04 02:04:07;;;;;;;7.03;2.10;;;;;;;19.89;42.44;99858.63;5058257;28;20033;-66
2022/01/04 02:06:33;;;;;;;5.00;2.15;;;;;;;19.92;42.56;99847.66;5059028;28;20047;-66
2022/01/04 02:09:00;;;;;;;6.47;2.10;;;;;;;19.85;42.73;99846.84;5056108;28;20059;-66
2022/01/04 02:11:28;;;;;;;7.05;2.40;;;;;;;19.82;42.70;99844.63;5051351;28;20048;-66
2022/01/04 02:13:55;;;;;;;8.43;2.45;;;;;;;19.91;42.57;99839.94;5055018;28;20139;-65
2022/01/04 02:16:22;;;;;;;6.45;2.20;;;;;;;19.84;42.60;99831.19;5058480;28;20044;-66
2022/01/04 02:18:47;;;;;;;5.65;2.42;;;;;;;19.87;42.65;99830.78;5058834;28;20178;-66
2022/01/04 02:21:13;;;;;;;5.53;2.15;;;;;;;19.82;42.62;99822.66;5057237;28;20445;-65
2022/01/04 02:23:38;;;;;;;6.47;2.60;;;;;;;19.82;42.70;99828.75;5037240;28;20477;-66
2022/01/04 02:26:04;;;;;;;11.02;2.70;;;;;;;19.83;42.61;99822.47;5056150;28;20032;-66
2022/01/04 02:28:30;;;;;;;7.10;2.20;;;;;;;19.81;42.79;99818.41;5059074;28;20040;-67
2022/01/04 02:30:56;;;;;;;8.10;2.22;;;;;;;19.75;42.90;99825.31;5056956;28;20040;-66
2022/01/04 02:33:22;;;;;;;4.70;2.03;;;;;;;19.85;42.79;99819.63;5060294;28;20120;-65
2022/01/04 02:35:47;;;;;;;7.32;2.03;;;;;;;19.82;42.70;99817.38;5057067;28;20985;-66
2022/01/04 02:38:13;;;;;;;6.50;2.15;;;;;;;19.81;42.55;99802.56;5056285;28;20101;-66
2022/01/04 02:40:39;;;;;;;5.18;2.20;;;;;;;19.72;42.89;99807.22;5056962;28;20052;-66
2022/01/04 02:43:04;;;;;;;6.65;2.20;;;;;;;19.72;42.94;99801.94;5059980;28;20039;-66
2022/01/04 02:45:30;;;;;;;5.93;2.08;;;;;;;19.70;42.87;99803.97;5058222;28;20047;-66
2022/01/04 02:47:56;;;;;;;5.63;2.20;;;;;;;19.77;42.53;99801.34;5059282;28;20900;-66
2022/01/04 02:50:22;;;;;;;8.10;2.35;;;;;;;19.73;42.80;99800.09;5056541;28;20028;-65
2022/01/04 02:52:49;;;;;;;8.57;2.67;;;;;;;19.72;42.89;99796.66;5059069;28;20055;-66
2022/01/04 02:55:15;;;;;;;4.70;1.75;;;;;;;19.78;43.03;99795.84;5057126;28;20508;-65
2022/01/04 02:57:41;;;;;;;7.95;2.60;;;;;;;19.68;43.02;99800.72;5058896;28;20037;-66
2022/01/04 03:00:11;;;;;;;8.00;2.70;;;;;;;19.73;42.90;99785.06;5040815;28;20074;-66
2022/01/04 03:02:37;;;;;;;9.47;2.23;;;;;;;19.71;43.08;99788.94;5058960;28;20163;-66
2022/01/04 03:05:03;;;;;;;8.40;1.75;;;;;;;19.82;42.63;99780.41;5056932;28;20040;-66
2022/01/04 03:07:29;;;;;;;10.20;2.60;;;;;;;19.69;42.85;99775.94;5057001;28;20037;-66
2022/01/04 03:09:54;;;;;;;4.50;2.13;;;;;;;19.58;42.95;99750.97;5056327;28;20115;-66
2022/01/04 03:12:20;;;;;;;6.13;2.30;;;;;;;19.68;42.95;99768.22;5059806;28;20036;-66
2022/01/04 03:14:46;;;;;;;6.10;2.20;;;;;;;19.68;43.13;99762.94;5042456;28;20043;-65
2022/01/04 03:17:11;;;;;;;5.47;2.70;;;;;;;19.66;43.11;99757.84;5040399;28;20029;-65
2022/01/04 03:19:37;;;;;;;6.05;2.10;;;;;;;19.59;43.13;99752.59;5056719;28;20048;-66
2022/01/04 03:22:03;;;;;;;9.93;3.13;;;;;;;19.61;43.10;99755.03;5056064;28;20041;-65
2022/01/04 03:24:29;;;;;;;7.50;2.42;;;;;;;19.57;43.28;99745.88;5041730;28;20091;-65
2022/01/04 03:26:54;;;;;;;5.78;2.25;;;;;;;19.55;43.33;99742.59;5058849;28;20049;-65
2022/01/04 03:29:20;;;;;;;6.00;2.13;;;;;;;19.60;43.15;99740.19;5060713;28;20039;-66
2022/01/04 03:31:46;;;;;;;6.10;2.38;;;;;;;19.52;43.17;99730.59;5056737;28;20059;-66
2022/01/04 03:34:12;;;;;;;10.85;2.60;;;;;;;19.55;43.16;99738.13;5055226;28;20052;-66
2022/01/04 03:36:39;;;;;;;12.75;2.38;;;;;;;19.52;43.28;99732.44;5059501;28;20086;-66
2022/01/04 03:39:07;;;;;;;7.97;2.35;;;;;;;19.48;43.48;99734.66;5053461;28;20041;-66
2022/01/04 03:41:37;;;;;;;7.35;2.25;;;;;;;19.44;43.59;99730.00;5053003;28;20523;-66
2022/01/04 03:44:07;;;;;;;6.18;2.40;;;;;;;19.50;43.37;99729.19;5058626;28;20033;-66
2022/01/04 03:46:33;;;;;;;7.47;2.13;;;;;;;19.53;43.32;99723.50;5057707;28;20028;-65
2022/01/04 03:48:59;;;;;;;3.20;1.98;;;;;;;19.50;43.33;99715.97;5055384;28;20135;-65
2022/01/04 03:51:25;;;;;;;4.28;2.05;;;;;;;19.47;43.53;99705.84;5040172;28;20139;-65
2022/01/04 03:53:50;;;;;;;9.00;3.85;;;;;;;19.43;43.61;99704.63;5057541;28;20503;-66
2022/01/04 03:56:16;;;;;;;5.75;2.40;;;;;;;19.47;43.32;99693.44;5058061;28;20041;-66
2022/01/04 03:58:42;;;;;;;4.57;2.28;;;;;;;19.51;43.31;99697.28;5059094;28;20452;-65
2022/01/04 04:01:08;;;;;;;7.07;2.58;;;;;;;19.43;43.50;99684.31;5057924;28;20085;-65
2022/01/04 04:03:33;;;;;;;6.57;2.55;;;;;;;19.42;43.40;99682.69;5057039;28;20037;-66
2022/01/04 04:05:59;;;;;;;7.90;2.65;;;;;;;19.45;43.41;99677.00;5059213;28;20497;-66
2022/01/04 04:08:25;;;;;;;6.85;2.55;;;;;;;19.44;43.47;99671.94;5055559;28;20806;-65
2022/01/04 04:10:51;;;;;;;8.30;2.45;;;;;;;19.52;43.21;99661.13;5054222;28;20072;-65
2022/01/04 04:13:17;;;;;;;7.55;2.17;;;;;;;19.46;43.30;99656.69;5055419;28;20474;-65
2022/01/04 04:15:44;;;;;;;8.10;4.10;;;;;;;19.45;43.48;99650.59;5054377;28;20036;-66
2022/01/04 04:18:10;;;;;;;5.78;2.10;;;;;;;19.46;43.48;99651.41;5058315;28;20032;-66
2022/01/04 04:20:39;;;;;;;4.75;2.35;;;;;;;19.40;43.47;99636.41;5042121;28;20122;-66
2022/01/04 04:23:06;;;;;;;8.13;2.92;;;;;;;19.50;43.26;99644.69;5058054;28;20064;-66
2022/01/04 04:25:33;;;;;;;6.88;2.58;;;;;;;19.63;43.10;99635.97;5057032;28;20045;-66
2022/01/04 04:27:59;;;;;;;3.88;2.20;;;;;;;19.58;43.11;99626.84;5055779;28;20036;-66
2022/01/04 04:30:25;;;;;;;4.45;2.28;;;;;;;19.40;43.58;99620.56;5054788;28;20032;-65
2022/01/04 04:32:51;;;;;;;6.95;2.40;;;;;;;19.58;43.23;99632.13;5038823;28;20288;-65
2022/01/04 04:35:16;;;;;;;3.88;2.38;;;;;;;19.69;42.90;99616.66;5053881;28;20060;-65
2022/01/04 04:37:42;;;;;;;6.57;2.30;;;;;;;19.70;42.99;99615.63;5055485;28;20043;-66
2022/01/04 04:40:09;;;;;;;8.45;2.88;;;;;;;19.68;42.87;99612.38;5052190;28;20414;-65
2022/01/04 04:42:35;;;;;;;6.63;2.40;;;;;;;19.71;42.97;99604.84;5052463;28;20450;-66
2022/01/04 04:45:03;;;;;;;7.25;2.58;;;;;;;19.76;42.95;99602.41;5055174;28;20052;-66
2022/01/04 04:47:28;;;;;;;6.22;2.35;;;;;;;19.96;42.60;99604.16;5054854;28;20074;-65
2022/01/04 04:49:54;;;;;;;5.75;2.85;;;;;;;20.07;42.64;99603.50;5053573;28;20123;-66
2022/01/04 04:52:20;;;;;;;9.10;2.47;;;;;;;20.16;42.25;99603.06;5053508;28;20052;-66
2022/01/04 04:54:45;;;;;;;5.85;2.53;;;;;;;20.38;42.27;99608.03;5053632;28;20033;-65
2022/01/04 04:57:11;;;;;;;7.72;2.38;;;;;;;20.46;42.03;99605.94;5054678;28;20049;-66
2022/01/04 04:59:37;;;;;;;5.47;2.30;;;;;;;20.69;41.59;99616.00;5053901;28;20048;-64
2022/01/04 05:02:03;;;;;;;5.95;2.50;;;;;;;20.85;41.38;99604.06;5055005;28;20102;-66
2022/01/04 05:04:28;;;;;;;5.95;2.13;;;;;;;20.96;41.33;99613.94;5053465;28;20056;-66
2022/01/04 05:06:54;;;;;;;4.78;2.15;;;;;;;21.03;41.07;99601.47;5053760;28;20047;-66
2022/01/04 05:09:20;;;;;;;10.73;2.65;;;;;;;21.03;41.22;99601.47;5054362;28;20094;-66
2022/01/04 05:11:46;;;;;;;5.22;2.30;;;;;;;21.08;41.21;99585.75;5054199;28;20040;-66
2022/01/04 05:14:12;;;;;;;5.53;2.70;;;;;;;21.16;41.10;99589.94;5056195;28;20423;-66
2022/01/04 05:16:37;;;;;;;7.20;2.50;;;;;;;21.09;41.27;99592.66;5057129;28;20685;-66
2022/01/04 05:19:03;;;;;;;10.43;3.65;;;;;;;21.07;41.29;99581.50;5055180;28;20044;-66
2022/01/04 05:21:28;;;;;;;9.55;2.85;;;;;;;21.05;41.28;99574.78;5057009;28;20069;-66
2022/01/04 05:23:54;;;;;;;4.25;2.15;;;;;;;21.10;41.23;99565.16;5056778;28;20117;-66
2022/01/04 05:26:21;;;;;;;6.88;2.50;;;;;;;21.08;41.60;99558.47;5060072;28;20035;-66
2022/01/04 05:28:46;;;;;;;10.75;3.35;;;;;;;21.12;41.46;99567.59;5053861;28;20029;-65
2022/01/04 05:31:15;;;;;;;5.80;2.72;;;;;;;21.03;41.35;99542.44;5043652;28;20751;-66
2022/01/04 05:33:41;;;;;;;9.38;3.10;;;;;;;21.18;40.93;99550.81;5052462;28;20036;-66
2022/01/04 05:36:07;;;;;;;5.53;2.75;;;;;;;20.94;41.38;99512.78;5060234;28;20052;-66
2022/01/04 05:38:33;;;;;;;8.70;2.72;;;;;;;21.06;41.59;99540.16;5052468;28;20792;-66
2022/01/04 05:40:58;;;;;;;5.47;2.10;;;;;;;21.24;41.12;99555.28;5055394;28;20148;-66
2022/01/04 05:43:24;;;;;;;6.53;2.53;;;;;;;21.26;41.08;99529.41;5054128;28;20037;-66
2022/01/04 05:45:50;;;;;;;6.72;2.45;;;;;;;21.04;41.30;99513.13;5054940;28;20075;-65
2022/01/04 05:48:18;;;;;;;7.03;2.45;;;;;;;21.22;41.20;99544.09;5055287;28;20036;-66
2022/01/04 05:50:44;;;;;;;5.60;2.38;;;;;;;21.34;40.82;99544.97;5059035;28;20112;-66
2022/01/04 05:53:10;;;;;;;7.93;2.78;;;;;;;21.28;41.15;99530.00;5036513;28;20097;-66
2022/01/04 05:55:35;;;;;;;4.22;2.28;;;;;;;21.39;40.82;99523.16;5056051;28;20036;-66
2022/01/04 05:58:01;;;;;;;6.10;2.35;;;;;;;21.32;40.67;99509.97;5054930;28;20036;-66
2022/01/04 06:00:26;;;;;;;5.18;2.33;;;;;;;21.25;41.10;99492.56;5054377;28;20089;-66
2022/01/04 06:02:52;;;;;;;9.75;2.70;;;;;;;21.19;40.85;99459.00;5053429;28;20051;-66
2022/01/04 06:05:18;;;;;;;8.00;2.50;;;;;;;21.32;41.01;99494.09;5055522;28;20047;-66
2022/01/04 06:07:44;;;;;;;5.75;2.47;;;;;;;21.33;41.10;99508.13;5059319;28;20105;-66
2022/01/04 06:10:12;;;;;;;4.43;2.20;;;;;;;21.39;41.07;99500.13;5039983;28;20098;-66
2022/01/04 06:15:07;;;;;;;6.10;2.50;;;;;;;21.46;40.81;99494.75;5056457;28;20438;-66
2022/01/04 06:17:47;;;;;;;7.38;2.47;;;;;;;21.42;41.02;99498.88;5052627;28;20033;-65
2022/01/04 06:20:17;;;;;;;;;;;;;;;21.54;40.49;99499.72;5056186;28;20041;-66
2022/01/04 06:22:43;;;;;;;7.75;2.80;;;;;;;21.43;40.74;99497.84;5054012;28;20011;-66
2022/01/04 06:25:11;;;;;;;5.10;2.28;;;;;;;21.52;40.58;99499.16;5055798;28;20032;-66
2022/01/04 06:27:37;;;;;;;6.55;2.47;;;;;;;21.51;40.70;99496.72;5058237;28;20044;-66
2022/01/04 06:30:05;;;;;;;5.75;2.50;;;;;;;21.41;40.92;99495.44;5052347;28;20644;-66
2022/01/04 06:32:30;;;;;;;4.72;2.40;;;;;;;21.42;40.76;99504.97;5053158;28;20428;-66
2022/01/04 06:34:56;;;;;;;9.65;2.70;;;;;;;21.44;40.75;99499.47;5053739;28;20041;-65
2022/01/04 06:37:21;;;;;;;4.80;2.55;;;;;;;21.34;40.87;99499.97;5053645;28;20080;-66
2022/01/04 06:39:47;;;;;;;4.88;2.20;;;;;;;21.44;40.74;99501.31;5054061;28;20032;-66
2022/01/04 06:42:13;;;;;;;7.25;2.72;;;;;;;21.57;40.25;99487.91;5052414;28;20059;-66
2022/01/04 06:44:41;;;;;;;8.10;2.75;;;;;;;21.59;40.32;99485.84;5052052;28;20482;-66
2022/01/04 06:47:07;;;;;;;8.18;2.70;;;;;;;21.61;40.35;99478.47;5054652;28;20024;-66
2022/01/04 06:49:33;;;;;;;6.15;2.55;;;;;;;21.54;40.47;99481.19;5053080;28;20032;-65
2022/01/04 06:51:58;;;;;;;6.07;2.35;;;;;;;21.58;40.67;99484.22;5052890;28;20048;-65
2022/01/04 06:54:24;;;;;;;6.68;2.58;;;;;;;21.67;40.31;99485.53;5056343;28;20047;-66
2022/01/04 06:56:50;;;;;;;5.63;2.40;;;;;;;21.59;40.72;99464.66;5036566;28;20069;-66
2022/01/04 06:59:16;;;;;;;6.88;2.83;;;;;;;21.68;40.23;99474.69;5055142;28;20054;-66
2022/01/04 07:01:42;;;;;;;6.43;2.67;;;;;;;21.78;40.17;99473.38;5058581;28;20470;-66
2022/01/04 07:04:08;;;;;;;9.18;2.60;;;;;;;21.68;40.21;99474.69;5057988;28;20036;-65
2022/01/04 07:06:34;;;;;;;6.97;2.30;;;;;;;21.64;40.72;99480.69;5056333;28;20112;-66
2022/01/04 07:09:00;;;;;;;7.63;2.55;;;;;;;21.58;40.51;99479.72;5053532;28;20064;-65
2022/01/04 07:11:26;;;;;;;4.53;2.13;;;;;;;21.55;40.62;99482.03;5040372;28;20072;-66
2022/01/04 07:13:52;;;;;;;5.20;2.53;;;;;;;21.52;40.77;99472.66;5057952;28;20136;-66
2022/01/04 07:16:18;;;;;;;8.32;2.70;;;;;;;21.58;40.38;99471.78;5056963;28;20823;-65
2022/01/04 07:18:47;;;;;;;8.23;2.33;;;;;;;21.52;40.85;99459.41;5038866;28;20048;-65
2022/01/04 07:21:14;;;;;;;5.57;2.30;;;;;;;21.47;40.71;99467.22;5053571;28;20110;-64
2022/01/04 07:23:40;;;;;;;5.80;3.05;;;;;;;21.55;40.52;99461.66;5057790;28;20039;-65
2022/01/04 07:26:05;;;;;;;5.35;2.58;;;;;;;21.53;40.49;99463.69;5057442;28;20032;-65
2022/01/04 07:28:31;;;;;;;6.90;2.60;;;;;;;21.62;40.52;99459.72;5059780;28;20052;-64
2022/01/04 07:30:57;;;;;;;7.45;2.75;;;;;;;21.74;40.28;99453.66;5054890;28;20479;-65
2022/01/04 07:33:22;;;;;;;7.95;2.42;;;;;;;21.56;40.44;99447.38;5054723;28;20581;-65
2022/01/04 07:35:48;;;;;;;7.15;2.50;;;;;;;21.74;40.33;99456.31;5057097;28;20046;-65
2022/01/04 07:38:14;;;;;;;6.35;2.30;;;;;;;21.67;40.54;99446.59;5055093;28;20523;-65
2022/01/04 07:40:39;;;;;;;6.70;2.92;;;;;;;21.68;40.19;99453.50;5059071;28;20103;-65
2022/01/04 07:43:05;;;;;;;4.70;2.40;;;;;;;21.63;40.50;99461.31;5056488;28;20127;-65
2022/01/04 07:45:33;;;;;;;4.40;2.38;;;;;;;21.61;40.48;99454.63;5052844;28;20045;-65
2022/01/04 07:48:00;;;;;;;6.20;2.20;;;;;;;21.61;40.44;99455.44;5060501;28;20033;-64
2022/01/04 07:50:26;;;;;;;6.05;2.58;;;;;;;21.52;40.50;99456.78;5058173;28;20113;-65
2022/01/04 07:52:53;;;;;;;6.07;2.38;;;;;;;21.54;40.46;99435.34;5055298;28;20111;-65
2022/01/04 07:55:19;;;;;;;6.85;2.78;;;;;;;21.53;40.57;99441.69;5058126;28;20028;-65
2022/01/04 07:57:45;;;;;;;6.22;2.20;;;;;;;21.45;40.76;99444.66;5061549;28;20641;-64
2022/01/04 08:00:12;;;;;;;4.55;2.65;;;;;;;21.42;40.70;99440.63;5053532;28;20048;-65
2022/01/04 08:02:42;;;;;;;5.75;2.22;;;;;;;21.46;40.37;99441.78;5058730;28;20059;-65
2022/01/04 08:05:11;;;;;;;7.13;2.58;;;;;;;21.33;40.99;99432.16;5052026;28;20040;-64
2022/01/04 08:07:37;;;;;;;7.00;2.42;;;;;;;21.15;41.15;99434.78;5060395;28;20032;-65
2022/01/04 08:10:04;;;;;;;3.58;2.20;;;;;;;21.20;41.05;99440.25;5059968;28;20432;-65
2022/01/04 08:12:30;;;;;;;4.57;2.45;;;;;;;21.25;40.94;99444.91;5058960;28;20052;-65
2022/01/04 08:14:56;;;;;;;6.38;2.63;;;;;;;21.23;41.11;99446.94;5057564;28;20025;-65
2022/01/04 08:17:22;;;;;;;5.38;2.53;;;;;;;21.18;41.08;99442.28;5044242;28;20051;-65
2022/01/04 08:19:47;;;;;;;5.65;2.78;;;;;;;21.39;40.76;99433.94;5056938;28;20067;-64
2022/01/04 08:22:13;;;;;;;10.77;2.78;;;;;;;21.43;40.78;99426.34;5058465;28;20497;-65
2022/01/04 08:24:38;;;;;;;6.28;2.67;;;;;;;21.35;40.82;99429.28;5058298;28;20037;-63
2022/01/04 08:27:04;;;;;;;4.38;2.30;;;;;;;21.56;40.55;99435.97;5055773;28;20124;-63
2022/01/04 08:29:31;;;;;;;5.00;2.33;;;;;;;21.55;40.55;99437.00;5059370;28;20040;-64
2022/01/04 08:31:58;;;;;;;5.78;2.03;;;;;;;21.49;40.59;99429.94;5057191;28;20041;-64
2022/01/04 08:34:24;;;;;;;6.95;2.28;;;;;;;21.51;41.23;99441.09;5034063;28;20171;-64
2022/01/04 08:36:50;;;;;;;4.00;2.17;;;;;;;21.40;41.05;99422.31;5052094;28;20143;-63
2022/01/04 08:39:15;;;;;;;4.50;2.30;;;;;;;21.45;41.16;99426.13;5057023;28;20071;-63
2022/01/04 08:41:46;;;;;;;3.25;1.95;;;;;;;21.37;41.17;99448.44;5056980;28;20086;-63
2022/01/04 08:44:12;;;;;;;4.90;2.08;;;;;;;21.45;40.97;99442.81;5056410;28;20494;-63
2022/01/04 08:46:39;;;;;;;5.88;1.73;;;;;;;21.39;41.13;99438.41;5060244;28;20115;-64
2022/01/04 08:49:08;;;;;;;5.55;2.03;;;;;;;21.49;40.81;99436.03;5050327;28;20048;-64
2022/01/04 08:51:35;;;;;;;3.93;2.00;;;;;;;21.55;40.89;99437.81;5058553;28;20037;-64
2022/01/04 08:54:01;;;;;;;4.13;1.75;;;;;;;21.41;41.09;99425.75;5042381;28;20036;-64
2022/01/04 08:56:27;;;;;;;4.93;2.20;;;;;;;21.53;40.87;99431.91;5055240;28;20121;-64
2022/01/04 08:58:53;;;;;;;3.83;1.70;;;;;;;21.54;40.97;99433.50;5055418;28;20060;-64
2022/01/04 09:01:18;;;;;;;3.17;1.85;;;;;;;21.59;40.83;99444.25;5053952;28;20491;-64
2022/01/04 09:03:44;;;;;;;5.40;2.05;;;;;;;21.60;40.58;99442.44;5055168;28;20078;-64
2022/01/04 09:06:12;;;;;;;4.40;2.15;;;;;;;21.52;40.76;99451.47;5045113;28;20044;-63
2022/01/04 09:08:38;;;;;;;3.78;1.92;;;;;;;21.47;40.92;99443.41;5062267;28;20177;-64
2022/01/04 09:11:04;;;;;;;3.15;1.63;;;;;;;21.47;40.86;99451.34;5058965;28;20032;-64
2022/01/04 09:13:37;;;;;;;3.40;1.75;;;;;;;21.37;40.98;99445.78;5061908;28;20044;-63
2022/01/04 09:18:50;;;;;;;3.53;1.60;;;;;;;21.40;40.88;99456.72;5048858;28;20415;-64
2022/01/04 09:21:19;;;;;;;3.45;2.03;;;;;;;21.47;40.68;99467.22;5061070;28;20479;-64
2022/01/04 09:23:46;;;;;;;3.15;1.80;;;;;;;21.53;40.79;99474.28;5050103;28;20540;-64
2022/01/04 09:26:13;;;;;;;2.65;1.35;;;;;;;21.54;40.63;99483.84;5052927;28;20040;-64
2022/01/04 09:28:38;;;;;;;3.83;1.88;;;;;;;21.57;40.63;99487.91;5051585;28;20036;-64
2022/01/04 09:31:05;;;;;;;2.75;1.63;;;;;;;21.75;40.56;99493.16;5059454;28;20059;-63
2022/01/04 09:33:31;;;;;;;3.30;1.33;;;;;;;21.75;40.48;99481.75;5051194;28;20051;-64
2022/01/04 09:35:57;;;;;;;3.22;1.75;;;;;;;21.63;40.63;99487.81;5053470;28;20495;-64
2022/01/04 09:38:23;;;;;;;3.17;1.77;;;;;;;21.69;40.58;99484.25;5054216;28;20051;-64
2022/01/04 09:40:49;;;;;;;3.72;1.92;;;;;;;21.65;40.43;99482.28;5060056;28;20513;-63
2022/01/04 09:43:16;;;;;;;3.25;1.88;;;;;;;21.71;40.47;99487.50;5053526;28;20086;-63
2022/01/04 09:45:41;;;;;;;1.55;1.30;;;;;;;21.61;40.80;99499.66;5058187;28;20127;-64
2022/01/04 09:48:08;;;;;;;2.28;1.50;;;;;;;21.65;40.53;99499.00;5059617;28;20045;-63
2022/01/04 09:50:37;;;;;;;2.97;1.67;;;;;;;21.57;40.69;99501.97;5042155;28;20162;-64
2022/01/04 09:53:02;;;;;;;6.20;1.92;;;;;;;21.62;40.57;99509.22;5055363;28;20040;-63
2022/01/04 09:55:28;;;;;;;2.50;1.60;;;;;;;21.59;40.40;99515.78;5057570;28;20126;-63
2022/01/04 09:57:54;;;;;;;3.00;1.45;;;;;;;21.47;40.91;99508.81;5053777;28;20040;-63
2022/01/04 10:00:19;;;;;;;2.00;1.50;;;;;;;21.52;40.81;99504.44;5053803;28;20123;-63
2022/01/04 10:02:49;;;;;;;3.42;1.38;;;;;;;21.48;40.43;99505.13;5056965;28;20025;-63
2022/01/04 10:05:22;;;;;;;;;;;;;;;21.38;41.03;99509.13;5049776;28;20118;-63
2022/01/04 10:07:59;;;;;;;3.67;1.60;;;;;;;21.50;40.50;99500.41;5061901;28;19959;-64
2022/01/04 10:10:24;;;;;;;2.08;1.67;;;;;;;21.52;40.41;99499.16;5047388;28;20060;-63
2022/01/04 10:13:01;;;;;;;4.20;2.15;;;;;;;21.39;40.82;99501.97;5057888;28;20048;-63
2022/01/04 10:15:32;;;;;;;2.22;1.23;;;;;;;21.37;40.50;99502.19;5055025;28;20577;-63
2022/01/04 10:18:02;;;;;;;4.70;1.35;;;;;;;21.24;40.83;99489.09;5058339;28;20037;-63
2022/01/04 10:20:28;;;;;;;1.73;1.40;;;;;;;21.34;40.73;99492.03;5041479;28;20047;-63
2022/01/04 10:22:53;;;;;;;1.90;1.30;;;;;;;21.35;40.81;99506.06;5058602;28;20055;-63
2022/01/04 10:25:20;;;;;;;4.78;1.63;;;;;;;21.18;40.64;99479.34;5054248;28;20710;-63
2022/01/04 10:27:48;;;;;;;1.13;1.00;;;;;;;21.04;40.91;99457.53;5055925;28;20391;-63
2022/01/04 10:30:23;;;;;;;2.53;1.15;;;;;;;21.13;41.09;99495.09;5054542;28;20060;-63
2022/01/04 10:32:56;;;;;;;1.40;1.13;;;;;;;21.23;40.87;99497.25;5053675;28;20051;-63
2022/01/04 10:35:29;;;;;;;3.28;1.02;;;;;;;21.11;41.05;99499.81;5060425;28;20040;-63
2022/01/04 10:37:57;;;;;;;2.28;1.30;;;;;;;21.12;41.12;99506.72;5058547;28;20044;-64
2022/01/04 10:40:26;;;;;;;1.25;1.10;;;;;;;21.10;41.10;99514.88;5055035;28;20041;-63
2022/01/04 10:42:52;;;;;;;2.25;1.50;;;;;;;21.22;41.06;99527.38;5040775;28;20055;-64
2022/01/04 10:45:25;;;;;;;3.47;1.20;;;;;;;21.21;40.82;99518.66;5049835;28;20037;-64
2022/01/04 10:47:50;;;;;;;3.20;1.23;;;;;;;21.26;40.67;99513.53;5056819;28;20364;-64
2022/01/04 10:50:32;;;;;;;2.70;1.02;;;;;;;21.30;40.89;99527.94;5057159;28;20039;-64
2022/01/04 10:52:59;;;;;;;1.88;0.90;;;;;;;21.27;40.85;99535.50;5049464;28;20487;-63
2022/01/04 10:55:36;;;;;;;1.75;1.00;;;;;;;21.26;40.94;99525.94;5058794;28;20652;-64
2022/01/04 10:58:03;;;;;;;4.30;1.40;;;;;;;21.29;40.57;99520.22;5059898;28;20037;-63
2022/01/04 11:00:30;;;;;;;1.60;0.90;;;;;;;21.22;40.80;99524.75;5053349;28;20499;-63
2022/01/04 11:03:02;;;;;;;1.50;1.20;;;;;;;21.09;41.02;99517.75;5065122;28;20961;-64
2022/01/04 11:05:28;;;;;;;1.13;1.02;;;;;;;21.16;40.85;99521.13;5061692;28;20040;-63
2022/01/04 11:08:04;;;;;;;1.85;1.35;;;;;;;21.19;40.98;99535.78;5060473;28;20398;-64
2022/01/04 11:10:32;;;;;;;1.52;0.93;;;;;;;21.22;40.72;99527.38;5055763;28;20047;-64
2022/01/04 11:12:59;;;;;;;1.73;0.95;;;;;;;21.30;40.69;99519.19;5063462;28;20063;-64
2022/01/04 11:15:25;;;;;;;1.63;1.13;;;;;;;21.38;40.27;99506.47;5053048;28;20744;-64
2022/01/04 11:17:51;;;;;;;1.33;1.10;;;;;;;21.34;40.49;99494.69;5064756;28;20047;-63
2022/01/04 11:20:17;;;;;;;1.60;0.93;;;;;;;21.48;40.33;99507.78;5063845;28;20033;-64
2022/01/04 11:22:47;;;;;;;1.15;1.02;;;;;;;21.46;40.15;99515.94;5063627;28;20071;-64
2022/01/04 11:25:22;;;;;;;1.42;1.02;;;;;;;21.33;40.33;99500.19;5059298;28;20032;-64
2022/01/04 11:27:49;;;;;;;1.75;0.73;;;;;;;21.48;40.42;99515.72;5062318;28;20074;-64
2022/01/04 11:30:29;;;;;;;1.45;1.00;;;;;;;21.46;40.53;99512.47;5055267;28;20094;-63
2022/01/04 11:33:02;;;;;;;2.22;1.30;;;;;;;21.48;40.20;99513.06;5058014;28;20044;-64
2022/01/04 11:35:29;;;;;;;1.08;0.73;;;;;;;21.49;40.49;99517.31;5061123;28;20033;-63
2022/01/04 11:37:57;;;;;;;1.58;1.05;;;;;;;21.44;40.68;99519.84;5052086;28;20189;-64
2022/01/04 11:40:25;;;;;;;2.25;1.10;;;;;;;21.47;40.42;99527.34;5054691;28;20047;-63
2022/01/04 11:42:51;;;;;;;1.00;0.82;;;;;;;21.52;40.06;99533.59;5059456;28;20036;-64
2022/01/04 11:45:37;;;;;;;0.93;0.80;;;;;;;21.36;40.27;99545.59;5052985;28;20102;-64